Time;durP1;ratioP1;P1;durP2;ratioP2;P2;SDS_P1;SDS_P2;PMS_P1;PMS_P2;Temp;Humidity;BMP_temperature;BMP_pressure;BME280_temperature;BME280_humidity;BME280_pressure;Samples;Min_cycle;Max_cycle;Signal;HPM_P1;HPM_P2
2022/07/10 00:00:32;;;;;;;5.70;1.80;;;;;;;;;;5053517;28;20248;-67
2022/07/10 00:02:58;;;;;;;6.27;1.73;;;;;;;;;;5035662;28;20174;-66
2022/07/10 00:05:25;;;;;;;3.57;1.80;;;;;;;;;;5035505;28;20185;-67
2022/07/10 00:07:51;;;;;;;6.17;1.90;;;;;;;;;;5053377;28;20198;-66
2022/07/10 00:10:20;;;;;;;3.53;1.63;;;;;;;;;;5053304;28;20186;-65
2022/07/10 00:12:48;;;;;;;3.97;1.60;;;;;;;;;;5035341;28;20269;-65
2022/07/10 00:15:14;;;;;;;3.13;2.03;;;;;;;;;;5053657;28;20171;-65
2022/07/10 00:17:40;;;;;;;4.93;1.90;;;;;;;;;;5053209;28;20202;-66
2022/07/10 00:20:07;;;;;;;3.03;1.53;;;;;;;;;;5053081;28;20229;-65
2022/07/10 00:22:37;;;;;;;3.43;2.00;;;;;;;;;;5053108;28;20591;-67
2022/07/10 00:25:04;;;;;;;6.77;1.57;;;;;;;;;;5053330;28;20171;-66
2022/07/10 00:27:30;;;;;;;4.07;1.70;;;;;;;;;;5053072;28;20190;-67
2022/07/10 00:29:56;;;;;;;8.27;2.07;;;;;;;;;;5053056;28;20182;-66
2022/07/10 00:32:22;;;;;;;4.10;1.90;;;;;;;;;;5053205;28;20179;-66
2022/07/10 00:34:47;;;;;;;2.53;1.47;;;;;;;;;;5052930;28;20261;-66
2022/07/10 00:37:13;;;;;;;3.83;1.70;;;;;;;;;;5034991;28;20213;-66
2022/07/10 00:39:39;;;;;;;2.57;1.40;;;;;;;;;;5035156;28;20685;-65
2022/07/10 00:42:13;;;;;;;2.73;1.77;;;;;;;;;;5053009;28;20236;-64
2022/07/10 00:44:39;;;;;;;3.50;1.70;;;;;;;;;;5035145;28;20236;-66
2022/07/10 00:47:06;;;;;;;4.57;1.63;;;;;;;;;;5034890;28;20199;-64
2022/07/10 00:49:32;;;;;;;2.47;1.67;;;;;;;;;;5052974;28;20661;-66
2022/07/10 00:52:00;;;;;;;2.60;1.73;;;;;;;;;;5052975;28;20178;-67
2022/07/10 00:54:26;;;;;;;4.77;1.83;;;;;;;;;;5052734;28;20181;-67
2022/07/10 00:56:52;;;;;;;8.33;1.93;;;;;;;;;;5052754;28;20221;-66
2022/07/10 00:59:20;;;;;;;3.50;1.60;;;;;;;;;;5052658;28;20182;-66
2022/07/10 01:01:46;;;;;;;6.03;1.63;;;;;;;;;;5052737;28;20171;-66
2022/07/10 01:04:12;;;;;;;3.73;1.60;;;;;;;;;;5052829;28;20182;-67
2022/07/10 01:06:37;;;;;;;6.03;1.80;;;;;;;;;;5038639;28;20248;-66
2022/07/10 01:09:03;;;;;;;5.27;1.30;;;;;;;;;;5056659;28;20255;-67
2022/07/10 01:11:30;;;;;;;5.57;1.90;;;;;;;;;;5056528;28;20185;-67
2022/07/10 01:13:56;;;;;;;4.10;1.50;;;;;;;;;;5038616;28;20236;-65
2022/07/10 01:16:22;;;;;;;3.63;1.63;;;;;;;;;;5056317;28;20191;-67
2022/07/10 01:18:48;;;;;;;1.57;1.23;;;;;;;;;;5038504;28;20208;-65
2022/07/10 01:21:31;;;;;;;5.30;1.57;;;;;;;;;;5056261;28;20210;-67
2022/07/10 01:23:58;;;;;;;2.57;1.70;;;;;;;;;;5038458;28;20634;-67
2022/07/10 01:26:24;;;;;;;2.33;1.50;;;;;;;;;;5056147;28;20220;-66
2022/07/10 01:28:50;;;;;;;1.90;1.47;;;;;;;;;;5056333;28;20179;-67
2022/07/10 01:31:26;;;;;;;5.20;1.90;;;;;;;;;;5038314;28;20268;-67
2022/07/10 01:33:53;;;;;;;5.87;1.73;;;;;;;;;;5056368;28;20243;-67
2022/07/10 01:36:20;;;;;;;2.17;1.33;;;;;;;;;;5055951;28;20685;-67
2022/07/10 01:38:46;;;;;;;3.20;1.90;;;;;;;;;;5056263;28;20179;-66
2022/07/10 01:41:12;;;;;;;3.03;1.50;;;;;;;;;;5038004;28;20217;-67
2022/07/10 01:43:42;;;;;;;4.40;1.60;;;;;;;;;;5038041;28;20178;-67
2022/07/10 01:46:10;;;;;;;3.20;1.43;;;;;;;;;;5056053;28;20255;-65
2022/07/10 01:48:37;;;;;;;4.20;1.50;;;;;;;;;;5056073;28;20635;-67
2022/07/10 01:51:03;;;;;;;5.40;1.80;;;;;;;;;;5056289;28;20257;-65
2022/07/10 01:53:29;;;;;;;4.40;1.60;;;;;;;;;;5056147;28;20224;-67
2022/07/10 01:55:55;;;;;;;5.10;1.93;;;;;;;;;;5037850;28;20178;-67
2022/07/10 01:58:21;;;;;;;2.40;1.40;;;;;;;;;;5055533;28;20225;-65
2022/07/10 02:00:47;;;;;;;4.30;1.83;;;;;;;;;;5055761;28;20202;-67
2022/07/10 02:05:58;;;;;;;4.90;1.60;;;;;;;;;;5055864;28;20170;-65
2022/07/10 02:08:24;;;;;;;5.13;1.77;;;;;;;;;;5055586;28;20194;-65
2022/07/10 02:10:50;;;;;;;3.23;1.90;;;;;;;;;;5055787;28;20539;-65
2022/07/10 02:13:19;;;;;;;4.87;2.07;;;;;;;;;;5055456;28;20270;-66
2022/07/10 02:15:45;;;;;;;4.33;1.73;;;;;;;;;;5036936;28;20190;-65
2022/07/10 02:18:11;;;;;;;2.17;1.47;;;;;;;;;;5036806;28;20206;-67
2022/07/10 02:20:37;;;;;;;3.73;1.60;;;;;;;;;;5037318;28;20697;-67
2022/07/10 02:23:03;;;;;;;3.67;1.67;;;;;;;;;;5055153;28;20551;-67
2022/07/10 02:25:29;;;;;;;3.73;2.00;;;;;;;;;;5037284;28;20531;-66
2022/07/10 02:27:55;;;;;;;4.47;1.57;;;;;;;;;;5054984;28;20194;-66
2022/07/10 02:30:21;;;;;;;3.37;1.63;;;;;;;;;;5037156;28;20189;-67
2022/07/10 02:32:47;;;;;;;1.43;1.33;;;;;;;;;;5054994;28;20225;-65
2022/07/10 02:35:13;;;;;;;2.90;1.70;;;;;;;;;;5037009;28;20242;-67
2022/07/10 02:37:39;;;;;;;5.23;2.07;;;;;;;;;;5055077;28;20248;-66
2022/07/10 02:40:05;;;;;;;3.80;1.70;;;;;;;;;;5055134;28;20199;-67
2022/07/10 02:42:31;;;;;;;1.87;1.60;;;;;;;;;;5054799;28;20171;-66
2022/07/10 02:44:57;;;;;;;2.33;1.50;;;;;;;;;;5055336;28;20178;-67
2022/07/10 02:47:23;;;;;;;1.50;1.40;;;;;;;;;;5054872;28;20217;-67
2022/07/10 02:49:49;;;;;;;4.20;1.60;;;;;;;;;;5036767;28;20182;-66
2022/07/10 02:52:15;;;;;;;3.63;1.60;;;;;;;;;;5054590;28;20650;-66
2022/07/10 02:54:41;;;;;;;4.33;1.87;;;;;;;;;;5054598;28;20201;-66
2022/07/10 02:57:07;;;;;;;4.03;1.87;;;;;;;;;;5054629;28;20590;-65
2022/07/10 02:59:33;;;;;;;4.00;1.90;;;;;;;;;;5036582;28;20226;-66
2022/07/10 03:01:59;;;;;;;4.87;2.20;;;;;;;;;;5036570;28;20178;-64
2022/07/10 03:04:24;;;;;;;2.57;1.70;;;;;;;;;;5054733;28;20210;-66
2022/07/10 03:06:51;;;;;;;3.37;2.00;;;;;;;;;;5054305;28;20202;-66
2022/07/10 03:09:17;;;;;;;3.90;1.77;;;;;;;;;;5054663;28;20179;-65
2022/07/10 03:11:43;;;;;;;5.60;2.10;;;;;;;;;;5054188;28;20185;-66
2022/07/10 03:14:09;;;;;;;6.23;2.60;;;;;;;;;;5054195;28;20175;-65
2022/07/10 03:16:35;;;;;;;2.93;1.77;;;;;;;;;;5054157;28;20202;-64
2022/07/10 03:19:01;;;;;;;11.07;2.30;;;;;;;;;;5054359;28;20186;-66
2022/07/10 03:21:27;;;;;;;4.50;2.13;;;;;;;;;;5053935;28;20234;-65
2022/07/10 03:23:53;;;;;;;3.97;2.43;;;;;;;;;;5054241;28;20181;-66
2022/07/10 03:26:19;;;;;;;6.33;2.20;;;;;;;;;;5035949;28;20204;-66
2022/07/10 03:28:45;;;;;;;3.37;1.90;;;;;;;;;;5035866;28;20265;-64
2022/07/10 03:31:11;;;;;;;4.93;2.10;;;;;;;;;;5054419;28;20175;-65
2022/07/10 03:33:38;;;;;;;5.30;2.33;;;;;;;;;;5035933;28;20263;-66
2022/07/10 03:36:05;;;;;;;7.47;2.07;;;;;;;;;;5054220;28;20182;-64
2022/07/10 03:38:31;;;;;;;5.00;2.20;;;;;;;;;;5035766;28;20201;-66
2022/07/10 03:40:57;;;;;;;4.77;2.10;;;;;;;;;;5053836;28;20252;-66
2022/07/10 03:43:24;;;;;;;3.50;1.80;;;;;;;;;;5035744;28;20182;-66
2022/07/10 03:45:50;;;;;;;6.17;1.83;;;;;;;;;;5053643;28;20655;-66
2022/07/10 03:48:16;;;;;;;3.57;1.97;;;;;;;;;;5053768;28;20202;-66
2022/07/10 03:50:42;;;;;;;4.50;1.97;;;;;;;;;;5053773;28;20213;-66
2022/07/10 03:53:08;;;;;;;6.63;2.10;;;;;;;;;;5035614;28;20218;-66
2022/07/10 03:55:34;;;;;;;5.03;2.17;;;;;;;;;;5053391;28;20216;-66
2022/07/10 03:58:02;;;;;;;4.37;1.93;;;;;;;;;;5053189;28;20224;-66
2022/07/10 04:00:31;;;;;;;4.17;2.10;;;;;;;;;;5053879;28;20209;-65
2022/07/10 04:02:58;;;;;;;5.40;2.03;;;;;;;;;;5053278;28;20705;-66
2022/07/10 04:05:24;;;;;;;6.20;2.20;;;;;;;;;;5035362;28;20175;-66
2022/07/10 04:07:50;;;;;;;4.70;2.07;;;;;;;;;;5053205;28;20206;-65
2022/07/10 04:10:16;;;;;;;4.37;1.90;;;;;;;;;;5053470;28;20178;-64
2022/07/10 04:12:42;;;;;;;5.57;1.97;;;;;;;;;;5035271;28;20186;-66
2022/07/10 04:15:08;;;;;;;5.17;2.50;;;;;;;;;;5053708;28;20540;-66
2022/07/10 04:17:34;;;;;;;4.27;2.47;;;;;;;;;;5053004;28;20220;-66
2022/07/10 04:20:01;;;;;;;3.77;2.30;;;;;;;;;;5052970;28;20735;-66
2022/07/10 04:22:27;;;;;;;7.13;3.37;;;;;;;;;;5053065;28;20185;-66
2022/07/10 04:24:53;;;;;;;6.67;2.90;;;;;;;;;;5053383;28;20178;-66
2022/07/10 04:27:19;;;;;;;8.33;3.30;;;;;;;;;;5035035;28;20686;-68
2022/07/10 04:29:45;;;;;;;9.57;3.03;;;;;;;;;;5053007;28;20248;-66
2022/07/10 04:32:11;;;;;;;5.30;2.77;;;;;;;;;;5053222;28;20638;-66
2022/07/10 04:34:38;;;;;;;5.77;3.20;;;;;;;;;;5052932;28;20186;-66
2022/07/10 04:37:05;;;;;;;3.60;2.30;;;;;;;;;;5052786;28;20285;-66
2022/07/10 04:39:31;;;;;;;5.77;2.50;;;;;;;;;;5035598;28;20605;-66
2022/07/10 04:41:57;;;;;;;13.27;2.83;;;;;;;;;;5039092;28;20231;-65
2022/07/10 04:44:22;;;;;;;3.30;2.10;;;;;;;;;;5057545;28;20185;-65
2022/07/10 04:46:48;;;;;;;5.23;2.50;;;;;;;;;;5056836;28;20238;-66
2022/07/10 04:49:14;;;;;;;4.27;2.10;;;;;;;;;;5056935;28;20182;-66
2022/07/10 04:51:41;;;;;;;4.83;2.83;;;;;;;;;;5056905;28;20186;-66
2022/07/10 04:54:07;;;;;;;4.60;2.20;;;;;;;;;;5056833;28;20643;-67
2022/07/10 04:56:33;;;;;;;3.03;2.30;;;;;;;;;;5038599;28;20220;-66
2022/07/10 04:58:59;;;;;;;2.97;2.23;;;;;;;;;;5057006;28;20198;-66
2022/07/10 05:01:24;;;;;;;4.13;2.47;;;;;;;;;;5056825;28;20206;-66
2022/07/10 05:03:50;;;;;;;5.80;3.00;;;;;;;;;;5038690;28;20197;-66
2022/07/10 05:06:16;;;;;;;4.67;2.43;;;;;;;;;;5056761;28;20185;-65
2022/07/10 05:08:43;;;;;;;4.93;2.30;;;;;;;;;;5056607;28;20179;-66
2022/07/10 05:11:09;;;;;;;3.33;1.83;;;;;;;;;;5038560;28;20705;-66
2022/07/10 05:13:35;;;;;;;3.43;2.30;;;;;;;;;;5056743;28;20182;-66
2022/07/10 05:16:01;;;;;;;3.10;1.90;;;;;;;;;;5056389;28;20242;-65
2022/07/10 05:18:27;;;;;;;2.40;1.90;;;;;;;;;;5056291;28;20229;-64
2022/07/10 05:20:53;;;;;;;4.43;1.90;;;;;;;;;;5056233;28;20213;-67
2022/07/10 05:23:19;;;;;;;2.37;2.00;;;;;;;;;;5056241;28;20178;-66
2022/07/10 05:25:45;;;;;;;3.47;2.27;;;;;;;;;;5056458;28;20186;-64
2022/07/10 05:28:14;;;;;;;4.30;2.30;;;;;;;;;;5056020;28;20202;-65
2022/07/10 05:30:40;;;;;;;3.67;2.03;;;;;;;;;;5056335;28;20178;-66
2022/07/10 05:33:06;;;;;;;5.07;2.20;;;;;;;;;;5056294;28;20204;-64
2022/07/10 05:35:32;;;;;;;3.83;2.37;;;;;;;;;;5056228;28;20197;-66
2022/07/10 05:37:58;;;;;;;5.23;2.17;;;;;;;;;;5037913;28;20198;-66
2022/07/10 05:40:24;;;;;;;3.63;1.97;;;;;;;;;;5037866;28;20209;-66
2022/07/10 05:42:50;;;;;;;1.70;1.60;;;;;;;;;;5038080;28;20269;-66
2022/07/10 05:45:16;;;;;;;3.77;2.43;;;;;;;;;;5037891;28;20183;-66
2022/07/10 05:47:42;;;;;;;7.17;3.07;;;;;;;;;;5055982;28;20222;-66
2022/07/10 05:50:08;;;;;;;7.87;2.40;;;;;;;;;;5038138;28;20706;-66
2022/07/10 05:52:34;;;;;;;5.40;2.27;;;;;;;;;;5055721;28;20187;-66
2022/07/10 05:55:00;;;;;;;5.23;2.03;;;;;;;;;;5056233;28;20206;-66
2022/07/10 05:57:26;;;;;;;5.57;2.30;;;;;;;;;;5055654;28;20709;-65
2022/07/10 05:59:52;;;;;;;4.37;2.00;;;;;;;;;;5055945;28;20610;-66
2022/07/10 06:02:19;;;;;;;7.23;2.33;;;;;;;;;;5055731;28;20174;-65
2022/07/10 06:04:45;;;;;;;3.57;2.03;;;;;;;;;;5055430;28;20175;-64
2022/07/10 06:07:11;;;;;;;5.33;3.00;;;;;;;;;;5055392;28;20251;-67
2022/07/10 06:09:37;;;;;;;7.20;2.50;;;;;;;;;;5055412;28;20265;-65
2022/07/10 06:12:03;;;;;;;4.07;2.00;;;;;;;;;;5055347;28;20185;-66
2022/07/10 06:14:29;;;;;;;5.43;2.30;;;;;;;;;;5055568;28;20175;-66
2022/07/10 06:16:55;;;;;;;2.33;2.07;;;;;;;;;;5055157;28;20331;-66
2022/07/10 06:19:21;;;;;;;3.17;1.90;;;;;;;;;;5055167;28;20171;-64
2022/07/10 06:21:47;;;;;;;5.50;2.00;;;;;;;;;;5037174;28;20217;-66
2022/07/10 06:24:13;;;;;;;4.47;1.90;;;;;;;;;;5054886;28;20253;-66
2022/07/10 06:26:39;;;;;;;3.97;2.40;;;;;;;;;;5037094;28;20286;-66
2022/07/10 06:29:05;;;;;;;5.93;2.27;;;;;;;;;;5055517;28;20202;-66
2022/07/10 06:31:31;;;;;;;3.87;1.90;;;;;;;;;;5055259;28;20613;-66
2022/07/10 06:33:57;;;;;;;5.37;2.00;;;;;;;;;;5054989;28;20529;-66
2022/07/10 06:36:23;;;;;;;5.57;1.93;;;;;;;;;;5054898;28;20604;-64
2022/07/10 06:38:49;;;;;;;6.37;2.23;;;;;;;;;;5055126;28;20282;-65
2022/07/10 06:41:15;;;;;;;2.67;1.70;;;;;;;;;;5054989;28;20205;-66
2022/07/10 06:43:41;;;;;;;4.00;1.97;;;;;;;;;;5054775;28;20201;-66
2022/07/10 06:46:07;;;;;;;4.33;1.70;;;;;;;;;;5054749;28;20200;-64
2022/07/10 06:48:35;;;;;;;9.17;2.80;;;;;;;;;;5036771;28;20221;-66
2022/07/10 06:51:01;;;;;;;5.60;1.80;;;;;;;;;;5055199;28;20217;-65
2022/07/10 06:53:27;;;;;;;5.57;2.30;;;;;;;;;;5055151;28;20200;-66
2022/07/10 06:55:54;;;;;;;3.77;1.93;;;;;;;;;;5054532;28;20186;-66
2022/07/10 06:58:20;;;;;;;5.67;1.97;;;;;;;;;;5036393;28;20299;-66
2022/07/10 07:00:46;;;;;;;3.57;2.00;;;;;;;;;;5054855;28;20674;-66
2022/07/10 07:03:11;;;;;;;5.17;2.00;;;;;;;;;;5053904;28;20197;-66
2022/07/10 07:05:38;;;;;;;3.90;2.27;;;;;;;;;;5036489;28;20174;-66
2022/07/10 07:08:04;;;;;;;8.43;2.20;;;;;;;;;;5054256;28;20196;-66
2022/07/10 07:10:30;;;;;;;5.00;2.03;;;;;;;;;;5054815;28;20639;-67
2022/07/10 07:12:56;;;;;;;5.30;1.70;;;;;;;;;;5054203;28;20183;-66
2022/07/10 07:15:23;;;;;;;3.87;1.83;;;;;;;;;;5054411;28;20178;-66
2022/07/10 07:18:08;;;;;;;5.17;2.03;;;;;;;;;;5054117;28;20198;-66
2022/07/10 07:23:22;;;;;;;5.40;2.20;;;;;;;;;;5054149;28;20170;-66
2022/07/10 07:25:48;;;;;;;6.50;2.40;;;;;;;;;;5036074;28;20217;-66
2022/07/10 07:28:21;;;;;;;3.27;1.87;;;;;;;;;;5053845;28;20198;-66
2022/07/10 07:30:48;;;;;;;5.90;2.20;;;;;;;;;;5036039;28;20186;-66
2022/07/10 07:33:14;;;;;;;4.47;2.20;;;;;;;;;;5054392;28;20189;-66
2022/07/10 07:35:40;;;;;;;4.30;2.17;;;;;;;;;;5053780;28;20554;-66
2022/07/10 07:38:06;;;;;;;5.17;1.80;;;;;;;;;;5054042;28;20670;-65
2022/07/10 07:40:32;;;;;;;3.63;1.77;;;;;;;;;;5035766;28;20206;-66
2022/07/10 07:42:58;;;;;;;8.63;2.33;;;;;;;;;;5035828;28;20225;-66
2022/07/10 07:45:25;;;;;;;4.73;1.97;;;;;;;;;;5053659;28;20206;-66
2022/07/10 07:47:52;;;;;;;6.17;1.90;;;;;;;;;;5053621;28;20678;-67
2022/07/10 07:50:19;;;;;;;5.93;2.30;;;;;;;;;;5054205;28;20261;-66
2022/07/10 07:52:45;;;;;;;4.07;2.10;;;;;;;;;;5036632;28;20187;-66
2022/07/10 07:55:11;;;;;;;3.63;1.97;;;;;;;;;;5054059;28;20187;-66
2022/07/10 07:57:37;;;;;;;4.37;2.30;;;;;;;;;;5056067;28;20618;-66
2022/07/10 08:00:05;;;;;;;7.30;3.00;;;;;;;;;;5054082;28;20624;-65
2022/07/10 08:02:31;;;;;;;5.97;2.80;;;;;;;;;;5053779;28;20561;-66
2022/07/10 08:04:57;;;;;;;8.20;2.67;;;;;;;;;;5053358;28;20174;-66
2022/07/10 08:07:23;;;;;;;2.60;1.83;;;;;;;;;;5053186;28;20198;-66
2022/07/10 08:09:49;;;;;;;6.67;2.70;;;;;;;;;;5053203;28;20646;-66
2022/07/10 08:12:15;;;;;;;8.47;2.83;;;;;;;;;;5053213;28;20174;-66
2022/07/10 08:14:41;;;;;;;3.27;2.13;;;;;;;;;;5034406;28;20186;-65
2022/07/10 08:17:07;;;;;;;3.77;2.10;;;;;;;;;;5053041;28;20198;-66
2022/07/10 08:19:33;;;;;;;6.10;2.17;;;;;;;;;;5035274;28;20178;-64
2022/07/10 08:21:59;;;;;;;4.00;2.23;;;;;;;;;;5035504;28;20183;-67
2022/07/10 08:24:25;;;;;;;2.77;2.30;;;;;;;;;;5053111;28;20200;-66
2022/07/10 08:26:51;;;;;;;6.80;2.10;;;;;;;;;;5035279;28;20202;-65
2022/07/10 08:29:18;;;;;;;2.83;2.17;;;;;;;;;;5035053;28;20183;-65
2022/07/10 08:31:44;;;;;;;5.10;2.57;;;;;;;;;;5053174;28;20171;-66
2022/07/10 08:34:10;;;;;;;7.77;2.53;;;;;;;;;;5035000;28;20178;-65
2022/07/10 08:36:36;;;;;;;4.20;2.47;;;;;;;;;;5034893;28;20212;-67
2022/07/10 08:39:02;;;;;;;7.77;3.17;;;;;;;;;;5053426;28;20175;-65
2022/07/10 08:41:28;;;;;;;4.00;2.60;;;;;;;;;;5052795;28;20210;-65
2022/07/10 08:43:54;;;;;;;8.17;2.50;;;;;;;;;;5052721;28;20179;-66
2022/07/10 08:46:20;;;;;;;3.10;2.27;;;;;;;;;;5034656;28;20524;-65
2022/07/10 08:48:49;;;;;;;6.03;2.30;;;;;;;;;;5052971;28;20178;-64
2022/07/10 08:51:23;;;;;;;6.00;2.30;;;;;;;;;;5034801;28;20186;-64
2022/07/10 08:53:50;;;;;;;4.93;2.50;;;;;;;;;;5053038;28;20658;-65
2022/07/10 08:56:16;;;;;;;4.60;2.37;;;;;;;;;;5052822;28;20210;-65
2022/07/10 08:58:42;;;;;;;7.13;2.60;;;;;;;;;;5053087;28;20633;-64
2022/07/10 09:01:09;;;;;;;4.80;2.30;;;;;;;;;;5052588;28;20251;-65
2022/07/10 09:03:37;;;;;;;3.87;2.60;;;;;;;;;;5052555;28;20174;-66
2022/07/10 09:06:05;;;;;;;4.37;2.50;;;;;;;;;;5034672;28;20284;-65
2022/07/10 09:08:35;;;;;;;5.00;2.53;;;;;;;;;;5052412;28;20217;-67
2022/07/10 09:11:14;;;;;;;5.23;2.30;;;;;;;;;;5034677;28;20181;-66
2022/07/10 09:13:53;;;;;;;3.20;2.60;;;;;;;;;;5052552;28;20174;-67
2022/07/10 09:16:23;;;;;;;4.37;2.50;;;;;;;;;;5034696;28;20269;-64
2022/07/10 09:18:49;;;;;;;4.27;2.67;;;;;;;;;;5052483;28;20206;-65
2022/07/10 09:21:16;;;;;;;7.57;3.03;;;;;;;;;;5052751;28;20210;-65
2022/07/10 09:23:42;;;;;;;3.63;2.57;;;;;;;;;;5052723;28;20266;-66
2022/07/10 09:26:07;;;;;;;8.30;3.33;;;;;;;;;;5036082;28;20264;-67
2022/07/10 09:28:33;;;;;;;5.80;3.13;;;;;;;;;;5056456;28;20201;-66
2022/07/10 09:30:59;;;;;;;8.27;3.57;;;;;;;;;;5038365;28;20178;-67
2022/07/10 09:33:26;;;;;;;7.13;3.53;;;;;;;;;;5056089;28;20175;-67
2022/07/10 09:36:10;;;;;;;6.13;3.40;;;;;;;;;;5038182;28;20178;-66
2022/07/10 09:38:46;;;;;;;5.30;2.60;;;;;;;;;;5055820;28;20201;-65
2022/07/10 09:41:13;;;;;;;2.17;1.97;;;;;;;;;;5055924;28;20204;-66
2022/07/10 09:43:45;;;;;;;3.37;2.23;;;;;;;;;;5055736;28;20182;-67
2022/07/10 09:46:11;;;;;;;3.07;2.20;;;;;;;;;;5055643;28;20186;-67
2022/07/10 09:48:37;;;;;;;2.97;2.07;;;;;;;;;;5037516;28;20198;-63
2022/07/10 09:51:06;;;;;;;2.20;1.80;;;;;;;;;;5037828;28;20185;-67
2022/07/10 09:53:33;;;;;;;1.97;1.80;;;;;;;;;;5055568;28;20288;-66
2022/07/10 09:56:01;;;;;;;2.57;1.70;;;;;;;;;;5055475;28;20186;-64
2022/07/10 09:58:29;;;;;;;1.60;1.50;;;;;;;;;;5055287;28;20222;-66
2022/07/10 10:00:57;;;;;;;3.10;2.00;;;;;;;;;;5055305;28;20206;-67
2022/07/10 10:03:24;;;;;;;1.77;1.37;;;;;;;;;;5055361;28;20171;-67
2022/07/10 10:05:59;;;;;;;1.70;1.60;;;;;;;;;;5055150;28;20209;-67
2022/07/10 10:08:28;;;;;;;1.87;1.60;;;;;;;;;;5055119;28;20204;-65
2022/07/10 10:10:56;;;;;;;2.13;1.50;;;;;;;;;;5055243;28;20179;-67
2022/07/10 10:13:23;;;;;;;2.43;2.07;;;;;;;;;;5055086;28;20697;-67
2022/07/10 10:15:52;;;;;;;2.00;1.83;;;;;;;;;;5036991;28;20202;-65
2022/07/10 10:18:23;;;;;;;2.07;1.90;;;;;;;;;;5054896;28;20304;-65
2022/07/10 10:20:49;;;;;;;2.10;1.90;;;;;;;;;;5054797;28;20194;-66
2022/07/10 10:23:22;;;;;;;3.90;1.80;;;;;;;;;;5054969;28;20174;-66
2022/07/10 10:25:52;;;;;;;3.93;2.00;;;;;;;;;;5055087;28;20660;-66
2022/07/10 10:28:26;;;;;;;1.77;1.53;;;;;;;;;;5037012;28;20673;-67
2022/07/10 10:30:53;;;;;;;1.63;1.53;;;;;;;;;;5055163;28;20216;-65
2022/07/10 10:33:37;;;;;;;2.00;1.70;;;;;;;;;;5055284;28;20649;-65
2022/07/10 10:36:05;;;;;;;3.03;1.67;;;;;;;;;;5054895;28;20178;-65
2022/07/10 10:38:53;;;;;;;2.20;2.00;;;;;;;;;;5053887;28;20294;-65
2022/07/10 10:41:27;;;;;;;3.73;1.60;;;;;;;;;;5055049;28;20218;-65
2022/07/10 10:44:13;;;;;;;2.23;1.70;;;;;;;;;;5036988;28;20213;-63
2022/07/10 10:46:56;;;;;;;2.70;1.90;;;;;;;;;;5054660;28;20625;-65
2022/07/10 10:49:23;;;;;;;1.77;1.67;;;;;;;;;;5036926;28;20179;-65
2022/07/10 10:52:07;;;;;;;3.07;2.10;;;;;;;;;;5054861;28;20224;-65
2022/07/10 10:54:52;;;;;;;2.77;2.13;;;;;;;;;;5036828;28;20237;-65
2022/07/10 10:57:18;;;;;;;2.10;2.00;;;;;;;;;;5054407;28;20340;-67
2022/07/10 10:59:51;;;;;;;2.40;2.00;;;;;;;;;;5036610;28;20178;-67
2022/07/10 11:02:32;;;;;;;2.93;2.47;;;;;;;;;;5036606;28;20199;-67
2022/07/10 11:05:19;;;;;;;3.90;2.40;;;;;;;;;;5036499;28;20182;-68
2022/07/10 11:07:58;;;;;;;4.47;2.67;;;;;;;;;;5036330;28;20198;-68
2022/07/10 11:10:27;;;;;;;4.97;2.90;;;;;;;;;;5036499;28;20252;-68
2022/07/10 11:13:00;;;;;;;4.00;3.03;;;;;;;;;;5054287;28;20178;-67
2022/07/10 11:15:30;;;;;;;3.53;2.70;;;;;;;;;;5036370;28;20613;-67
2022/07/10 11:17:56;;;;;;;3.10;2.50;;;;;;;;;;5036188;28;20209;-67
2022/07/10 11:20:22;;;;;;;4.20;2.90;;;;;;;;;;5054184;28;20705;-67
2022/07/10 11:23:08;;;;;;;2.70;2.40;;;;;;;;;;5036239;28;20178;-67
2022/07/10 11:25:44;;;;;;;3.00;2.43;;;;;;;;;;5054097;28;20165;-67
2022/07/10 11:28:14;;;;;;;5.23;2.30;;;;;;;;;;5054110;28;20615;-66
2022/07/10 11:31:07;;;;;;;2.30;2.10;;;;;;;;;;5036612;28;20174;-66
2022/07/10 11:33:41;;;;;;;2.47;2.27;;;;;;;;;;5050240;28;20218;-67
2022/07/10 11:36:10;;;;;;;2.33;1.90;;;;;;;;;;5053844;28;20661;-67
2022/07/10 11:38:38;;;;;;;3.33;2.00;;;;;;;;;;5054274;28;20658;-65
2022/07/10 11:41:04;;;;;;;5.17;2.10;;;;;;;;;;5054215;28;20198;-64
2022/07/10 11:43:30;;;;;;;4.23;2.53;;;;;;;;;;5053723;28;20539;-64
2022/07/10 11:46:00;;;;;;;5.70;2.53;;;;;;;;;;5053914;28;20175;-67
2022/07/10 11:48:26;;;;;;;7.63;2.40;;;;;;;;;;5035630;28;20195;-65
2022/07/10 11:50:52;;;;;;;4.77;2.33;;;;;;;;;;5053861;28;20174;-68
2022/07/10 11:53:25;;;;;;;3.80;2.63;;;;;;;;;;5035889;28;20183;-67
2022/07/10 11:55:52;;;;;;;4.10;2.70;;;;;;;;;;5053723;28;20596;-66
2022/07/10 11:58:18;;;;;;;6.43;2.80;;;;;;;;;;5053266;28;20259;-65
2022/07/10 12:00:44;;;;;;;6.03;2.67;;;;;;;;;;5053667;28;20302;-67
2022/07/10 12:03:20;;;;;;;5.70;3.27;;;;;;;;;;5053666;28;20175;-66
2022/07/10 12:05:46;;;;;;;;;;;;;;;;;;5053810;28;20175;-67
2022/07/10 12:08:13;;;;;;;5.53;3.22;;;;;;;;;;5052309;28;20394;-67
2022/07/10 12:10:41;;;;;;;6.83;2.87;;;;;;;;;;5053273;28;20604;-67
2022/07/10 12:13:11;;;;;;;12.00;3.20;;;;;;;;;;5053316;28;20198;-67
2022/07/10 12:15:46;;;;;;;7.53;3.20;;;;;;;;;;5035437;28;20174;-66
2022/07/10 12:18:17;;;;;;;4.00;2.70;;;;;;;;;;5053057;28;20601;-67
2022/07/10 12:20:47;;;;;;;5.50;2.80;;;;;;;;;;5053008;28;20217;-67
2022/07/10 12:23:15;;;;;;;5.33;2.90;;;;;;;;;;5035146;28;20237;-67
2022/07/10 12:25:42;;;;;;;4.33;2.90;;;;;;;;;;5035253;28;20186;-66
2022/07/10 12:28:08;;;;;;;6.83;3.30;;;;;;;;;;5052953;28;20201;-67
2022/07/10 12:30:41;;;;;;;10.10;3.67;;;;;;;;;;5052955;28;20174;-66
2022/07/10 12:33:17;;;;;;;4.43;2.97;;;;;;;;;;5052902;28;20206;-66
2022/07/10 12:35:56;;;;;;;6.73;2.57;;;;;;;;;;5052956;28;20666;-67
2022/07/10 12:38:26;;;;;;;3.73;2.90;;;;;;;;;;5034971;28;20297;-67
2022/07/10 12:41:07;;;;;;;8.87;2.93;;;;;;;;;;5052942;28;20206;-67
2022/07/10 12:43:33;;;;;;;6.07;2.60;;;;;;;;;;5053517;28;20166;-67
2022/07/10 12:46:19;;;;;;;5.90;2.43;;;;;;;;;;5052935;28;20253;-67
2022/07/10 12:49:01;;;;;;;3.97;2.27;;;;;;;;;;5053018;28;20529;-64
2022/07/10 12:51:28;;;;;;;6.43;2.30;;;;;;;;;;5053165;28;20167;-66
2022/07/10 12:53:54;;;;;;;4.47;2.37;;;;;;;;;;5034864;28;20182;-67
2022/07/10 12:56:40;;;;;;;6.17;2.60;;;;;;;;;;5034715;28;20189;-67
2022/07/10 12:59:16;;;;;;;3.67;2.47;;;;;;;;;;5053286;28;20585;-67
2022/07/10 13:01:44;;;;;;;4.80;2.47;;;;;;;;;;5037462;28;20225;-66
2022/07/10 13:04:10;;;;;;;4.27;2.30;;;;;;;;;;5038846;28;20185;-65
2022/07/10 13:06:36;;;;;;;4.10;2.40;;;;;;;;;;5038623;28;20256;-67
2022/07/10 13:09:03;;;;;;;2.93;2.10;;;;;;;;;;5056696;28;20621;-66
2022/07/10 13:11:29;;;;;;;3.47;2.07;;;;;;;;;;5057099;28;20182;-66
2022/07/10 13:13:55;;;;;;;4.93;2.00;;;;;;;;;;5038662;28;20689;-66
2022/07/10 13:16:22;;;;;;;3.43;2.10;;;;;;;;;;5056451;28;20175;-66
2022/07/10 13:18:48;;;;;;;3.20;1.90;;;;;;;;;;5056447;28;20316;-66
2022/07/10 13:21:14;;;;;;;3.03;2.23;;;;;;;;;;5056241;28;20277;-65
2022/07/10 13:23:42;;;;;;;2.43;1.93;;;;;;;;;;5038390;28;20273;-65
2022/07/10 13:26:08;;;;;;;3.20;1.50;;;;;;;;;;5056592;28;20170;-65
2022/07/10 13:28:34;;;;;;;3.00;1.97;;;;;;;;;;5056233;28;20199;-67
2022/07/10 13:31:00;;;;;;;1.90;1.70;;;;;;;;;;5056187;28;20224;-66
2022/07/10 13:33:27;;;;;;;2.13;1.90;;;;;;;;;;5038381;28;20182;-66
2022/07/10 13:35:54;;;;;;;5.43;2.27;;;;;;;;;;5056212;28;20202;-66
2022/07/10 13:38:20;;;;;;;2.00;1.70;;;;;;;;;;5038097;28;20203;-65
2022/07/10 13:40:47;;;;;;;1.73;1.60;;;;;;;;;;5055984;28;20198;-66
2022/07/10 13:43:13;;;;;;;4.53;2.03;;;;;;;;;;5056098;28;20171;-65
2022/07/10 13:45:45;;;;;;;2.67;1.70;;;;;;;;;;5055941;28;20596;-67
2022/07/10 13:48:12;;;;;;;1.80;1.70;;;;;;;;;;5055908;28;20222;-66
2022/07/10 13:50:38;;;;;;;3.50;1.77;;;;;;;;;;5037881;28;20225;-66
2022/07/10 13:53:04;;;;;;;3.23;2.10;;;;;;;;;;5055629;28;20262;-66
2022/07/10 13:55:30;;;;;;;4.20;2.03;;;;;;;;;;5037610;28;20634;-66
2022/07/10 13:57:56;;;;;;;4.33;2.03;;;;;;;;;;5037506;28;20222;-67
2022/07/10 14:00:22;;;;;;;2.23;1.70;;;;;;;;;;5037646;28;20411;-66
2022/07/10 14:02:48;;;;;;;2.17;1.53;;;;;;;;;;5055604;28;20170;-64
2022/07/10 14:05:14;;;;;;;2.70;1.80;;;;;;;;;;5055513;28;20177;-67
2022/07/10 14:07:40;;;;;;;3.23;1.93;;;;;;;;;;5055540;28;20203;-65
2022/07/10 14:10:07;;;;;;;2.60;1.90;;;;;;;;;;5055697;28;20256;-67
2022/07/10 14:12:33;;;;;;;3.83;1.90;;;;;;;;;;5036162;28;20179;-66
2022/07/10 14:15:00;;;;;;;1.70;1.40;;;;;;;;;;5038378;28;20179;-66
2022/07/10 14:17:26;;;;;;;3.43;1.70;;;;;;;;;;5055277;28;20213;-64
2022/07/10 14:19:52;;;;;;;1.90;1.60;;;;;;;;;;5055107;28;20279;-66
2022/07/10 14:22:18;;;;;;;3.93;1.77;;;;;;;;;;5055512;28;20174;-66
2022/07/10 14:24:44;;;;;;;1.90;1.60;;;;;;;;;;5037551;28;20261;-66
2022/07/10 14:27:10;;;;;;;3.83;2.30;;;;;;;;;;5055056;28;20198;-65
2022/07/10 14:29:36;;;;;;;2.30;1.67;;;;;;;;;;5055082;28;20174;-67
2022/07/10 14:32:02;;;;;;;2.60;1.80;;;;;;;;;;5055300;28;20181;-65
2022/07/10 14:34:29;;;;;;;2.20;1.90;;;;;;;;;;5054928;28;20175;-66
2022/07/10 14:36:55;;;;;;;5.10;1.90;;;;;;;;;;5054954;28;20247;-67
2022/07/10 14:39:21;;;;;;;4.20;1.63;;;;;;;;;;5054927;28;20235;-67
2022/07/10 14:41:47;;;;;;;3.60;1.77;;;;;;;;;;5055102;28;20289;-66
2022/07/10 14:44:13;;;;;;;4.30;2.03;;;;;;;;;;5036925;28;20185;-65
2022/07/10 14:46:39;;;;;;;3.40;1.70;;;;;;;;;;5054721;28;20191;-64
2022/07/10 14:49:04;;;;;;;1.93;1.73;;;;;;;;;;5036728;28;20182;-66
2022/07/10 14:51:31;;;;;;;3.27;1.60;;;;;;;;;;5036763;28;20190;-67